Hinckley, OH (44233)

7:09 AM EST on November 21, 2014 (GMT -0500)
Hinckley | Change Station
CLOSE
Current Station
Personal Weather Station
Location: Hinckley, OH
Elevation: 1010 ft
Nearby Weather Stations

Elev 1010 ft 41.26 °N, 81.76 °W | Updated 4 seconds ago

Overcast
Overcast
20.5 °F
Feels Like 13 °F
N
5.6
Wind Variable Wind from WSW
Gusts 5.6 mph

Today
High -- | Low -- °F
--% Chance of Precip.
Yesterday
High -- | Low -- °F
Precip. -- in
7:22 AM 5:03 PM
Waning Crescent, 1% visible
Pressure 30.41 in
Visibility 9.0 miles
Clouds Overcast 4200 ft
Windchill 13 °F
Dew Point 14 °F
Humidity 74%
Rainfall 0.00 in
Snow Depth Not available.
UV 0 out of 12
Pollen .10 out of 12
Air Quality Not available.
Flu Activity Not available.
METAR KCLE 211151Z 30011KT 9SM -SN OVC042 M06/M13 A3037 RMK AO2 SLP298 P0000 60009 70014 4/004 T10611128 11056 21072 53021 $

More Conditions Fewer Conditions

Pressure 30.41 in
Visibility 9.0 miles
Clouds Overcast 4200 ft
Windchill 13 °F
Dew Point 14 °F
Humidity 74%
Rainfall 0.00 in
Snow Depth Not available.
UV 0 out of 12
Pollen .10 out of 12
Air Quality Not available.
Flu Activity Not available.
METAR KCLE 211151Z 30011KT 9SM -SN OVC042 M06/M13 A3037 RMK AO2 SLP298 P0000 60009 70014 4/004 T10611128 11056 21072 53021 $

More Conditions Fewer Conditions

10-Day Weather Forecast

Almanac

Astronomy

Nov. 21, 2014 Rise Set
Actual Time
Civil Twilight
Nautical Twilight
Astronomical Twilight
Moon
Length of Visible Light
Length of Day
Tomorrow will be .
, % of the Moon is Illuminated

Today's Extremes

State Highs State Lows

Community

WunderPhotos

Upload Photos

1,772,646 photos uploaded!

WunderBlogs® & News

Nearby

Air Quality

  Air Quality AQ Index Pollutant
Not available.

Snow Depth

Station Depth Elevation

Earthquake Activity

City Distance Mag. Time & Date
Minimum magnitude displayed is 2.5.

Coastal Water Temperatures

Place Temperature

Nearby Weather Stations